<?xml version="1.0" encoding="UTF-8" standalone="no" ?>
<gpx xmlns="http://www.topografix.com/GPX/1/1" xmlns:xsi="http://www.w3.org/2001/XMLSchema-instance" xsi:schemaLocation="http://www.topografix.com/GPX/1/1 http://www.topografix.com/GPX/1/1/gpx.xsd" version="1.1" creator="VisuGPX - https://www.visugpx.com">
  <metadata>
    <name>Dent de Pleuven, But au Trélod (Bauges)</name>
    <desc><![CDATA[Au départ de [b]Les Magnoux[/b]
Suivre la route/chemin forestier plein Est. Vers 1000m au dessus de 2 granges, un chemin (marques rouges)  traverse la Forêt "[b]La Fraisse[/b]" jusqu'aux falaises semblant infranchissables entre la [b]Dents de Pleuve[/b]n et l[b]a Dent des Portes[/b].
La sente aérienne  traverse la cascade du [b]Petit Nant[/b] (de part et d'autre R3), à éviter par temps humide car la trace devient vite boueuse.
On peut accéder à la [b]Dent de Pleuven[/b] directement par la prairie orientée Nord ou un peu plus haut sous les falaise depuis le sentier qui conduit au [b]Mont Trélod[/b] .
Photos ici: [url]https://photos.app.goo.gl/iwnGNevhrDvwj1hJ9[/url]
. 
Autres randos dans les Bauges : [url]https://www.visugpx.com/membres/87/bauges/[/url]]]></desc>
  </metadata>
  <wpt lat="45.68654" lon="6.1861">
    <ele>1421.08</ele>
    <type><![CDATA[Jalon]]></type>
  </wpt>
  <wpt lat="45.68698" lon="6.18529">
    <ele>1422.6</ele>
    <type><![CDATA[Jalon]]></type>
  </wpt>
  <trk>
    <name><![CDATA[2018-11-22 09:53]]></name>
    <desc><![CDATA[<p>Heure de départ: 11/22/2018 09:53</p><p>Heure d'arrivée: 11/22/2018 16:41</p><p>Distance: 10,5 km (06:47)</p><p>Temps déplacement: 03:44</p><p>Vitesse moyenne: 1,55 km/h</p><p>Vitesse moyenne mouv.: 2,81 km/h</p><p>Vitesse Max.: 8,04km/h</p><p>Altitude minimale: 923 m</p><p>Altitude maximale: 2121 m</p><p>Vitesse de montée: 423,8 m/h</p><p>Vitesse de descente: -417 m/h</p><p>Gain d'altitude: 1243 m</p><p>Perte d'altitude: -1274 m</p><p>Temps de montée: 02:55</p><p>Temps de descente: 03:03</p><hr align="center" width="480" style="height: 2px; width: 517px"/>]]></desc>
    <trkseg>
      <trkpt lat="45.68434" lon="6.16837">
        <ele>929.13</ele>
        <time>2018-11-22T09:55:41Z</time>
      </trkpt>
      <trkpt lat="45.68414" lon="6.16834">
        <ele>937.75</ele>
        <time>2018-11-22T09:56:15Z</time>
      </trkpt>
      <trkpt lat="45.68395" lon="6.1684">
        <ele>934.69</ele>
        <time>2018-11-22T09:56:34Z</time>
      </trkpt>
      <trkpt lat="45.68379" lon="6.16856">
        <ele>931.8</ele>
        <time>2018-11-22T09:56:48Z</time>
      </trkpt>
      <trkpt lat="45.6836" lon="6.1686">
        <ele>935.8</ele>
        <time>2018-11-22T09:57:06Z</time>
      </trkpt>
      <trkpt lat="45.68341" lon="6.1686">
        <ele>940.64</ele>
        <time>2018-11-22T09:57:18Z</time>
      </trkpt>
      <trkpt lat="45.68322" lon="6.16865">
        <ele>937.11</ele>
        <time>2018-11-22T09:57:31Z</time>
      </trkpt>
      <trkpt lat="45.68304" lon="6.16875">
        <ele>933.71</ele>
        <time>2018-11-22T09:57:44Z</time>
      </trkpt>
      <trkpt lat="45.68285" lon="6.16871">
        <ele>928.88</ele>
        <time>2018-11-22T09:57:59Z</time>
      </trkpt>
      <trkpt lat="45.68267" lon="6.16873">
        <ele>923.71</ele>
        <time>2018-11-22T09:58:14Z</time>
      </trkpt>
      <trkpt lat="45.68249" lon="6.16878">
        <ele>924.87</ele>
        <time>2018-11-22T09:58:27Z</time>
      </trkpt>
      <trkpt lat="45.68237" lon="6.169">
        <ele>928.68</ele>
        <time>2018-11-22T09:58:38Z</time>
      </trkpt>
      <trkpt lat="45.68226" lon="6.16921">
        <ele>930.67</ele>
        <time>2018-11-22T09:58:57Z</time>
      </trkpt>
      <trkpt lat="45.68227" lon="6.16949">
        <ele>927.92</ele>
        <time>2018-11-22T09:59:11Z</time>
      </trkpt>
      <trkpt lat="45.68225" lon="6.16976">
        <ele>936.6</ele>
        <time>2018-11-22T09:59:29Z</time>
      </trkpt>
      <trkpt lat="45.68214" lon="6.16997">
        <ele>938.88</ele>
        <time>2018-11-22T09:59:45Z</time>
      </trkpt>
      <trkpt lat="45.68205" lon="6.17019">
        <ele>943.48</ele>
        <time>2018-11-22T10:00:03Z</time>
      </trkpt>
      <trkpt lat="45.68193" lon="6.1704">
        <ele>946.63</ele>
        <time>2018-11-22T10:00:24Z</time>
      </trkpt>
      <trkpt lat="45.68175" lon="6.17046">
        <ele>945.68</ele>
        <time>2018-11-22T10:01:10Z</time>
      </trkpt>
      <trkpt lat="45.68158" lon="6.17058">
        <ele>948.71</ele>
        <time>2018-11-22T10:01:31Z</time>
      </trkpt>
      <trkpt lat="45.68139" lon="6.17061">
        <ele>952.64</ele>
        <time>2018-11-22T10:01:54Z</time>
      </trkpt>
      <trkpt lat="45.68127" lon="6.17082">
        <ele>953.92</ele>
        <time>2018-11-22T10:02:10Z</time>
      </trkpt>
      <trkpt lat="45.68115" lon="6.17102">
        <ele>956.08</ele>
        <time>2018-11-22T10:02:36Z</time>
      </trkpt>
      <trkpt lat="45.68101" lon="6.17119">
        <ele>958.44</ele>
        <time>2018-11-22T10:02:50Z</time>
      </trkpt>
      <trkpt lat="45.68087" lon="6.17137">
        <ele>962.28</ele>
        <time>2018-11-22T10:03:06Z</time>
      </trkpt>
      <trkpt lat="45.68076" lon="6.17161">
        <ele>959.93</ele>
        <time>2018-11-22T10:03:29Z</time>
      </trkpt>
      <trkpt lat="45.68068" lon="6.17188">
        <ele>964.89</ele>
        <time>2018-11-22T10:03:44Z</time>
      </trkpt>
      <trkpt lat="45.68065" lon="6.17214">
        <ele>972.63</ele>
        <time>2018-11-22T10:04:01Z</time>
      </trkpt>
      <trkpt lat="45.68069" lon="6.1724">
        <ele>971.08</ele>
        <time>2018-11-22T10:04:25Z</time>
      </trkpt>
      <trkpt lat="45.68066" lon="6.17266">
        <ele>974.72</ele>
        <time>2018-11-22T10:04:44Z</time>
      </trkpt>
      <trkpt lat="45.68069" lon="6.17293">
        <ele>980.78</ele>
        <time>2018-11-22T10:04:56Z</time>
      </trkpt>
      <trkpt lat="45.68087" lon="6.17296">
        <ele>977.89</ele>
        <time>2018-11-22T10:05:27Z</time>
      </trkpt>
      <trkpt lat="45.68101" lon="6.17316">
        <ele>985.67</ele>
        <time>2018-11-22T10:06:02Z</time>
      </trkpt>
      <trkpt lat="45.681" lon="6.17343">
        <ele>987.12</ele>
        <time>2018-11-22T10:06:17Z</time>
      </trkpt>
      <trkpt lat="45.68089" lon="6.17365">
        <ele>990.6</ele>
        <time>2018-11-22T10:06:36Z</time>
      </trkpt>
      <trkpt lat="45.68076" lon="6.17385">
        <ele>988.87</ele>
        <time>2018-11-22T10:06:59Z</time>
      </trkpt>
      <trkpt lat="45.68091" lon="6.17401">
        <ele>1000.11</ele>
        <time>2018-11-22T10:07:16Z</time>
      </trkpt>
      <trkpt lat="45.6811" lon="6.17409">
        <ele>1005.23</ele>
        <time>2018-11-22T10:07:36Z</time>
      </trkpt>
      <trkpt lat="45.68111" lon="6.17435">
        <ele>1005.72</ele>
        <time>2018-11-22T10:07:59Z</time>
      </trkpt>
      <trkpt lat="45.68105" lon="6.1746">
        <ele>1003.49</ele>
        <time>2018-11-22T10:08:24Z</time>
      </trkpt>
      <trkpt lat="45.68111" lon="6.17485">
        <ele>1012.6</ele>
        <time>2018-11-22T10:08:50Z</time>
      </trkpt>
      <trkpt lat="45.68117" lon="6.17511">
        <ele>1025.83</ele>
        <time>2018-11-22T10:09:03Z</time>
      </trkpt>
      <trkpt lat="45.68128" lon="6.17536">
        <ele>1026.16</ele>
        <time>2018-11-22T10:09:27Z</time>
      </trkpt>
      <trkpt lat="45.6814" lon="6.17557">
        <ele>1030.04</ele>
        <time>2018-11-22T10:09:48Z</time>
      </trkpt>
      <trkpt lat="45.68157" lon="6.17566">
        <ele>1040.88</ele>
        <time>2018-11-22T10:09:57Z</time>
      </trkpt>
      <trkpt lat="45.68167" lon="6.17593">
        <ele>1040.08</ele>
        <time>2018-11-22T10:10:20Z</time>
      </trkpt>
      <trkpt lat="45.68173" lon="6.17619">
        <ele>1039.92</ele>
        <time>2018-11-22T10:10:49Z</time>
      </trkpt>
      <trkpt lat="45.68177" lon="6.17644">
        <ele>1044.81</ele>
        <time>2018-11-22T10:11:17Z</time>
      </trkpt>
      <trkpt lat="45.68176" lon="6.1767">
        <ele>1050.94</ele>
        <time>2018-11-22T10:11:41Z</time>
      </trkpt>
      <trkpt lat="45.6817" lon="6.17695">
        <ele>1053.89</ele>
        <time>2018-11-22T10:12:34Z</time>
      </trkpt>
      <trkpt lat="45.68163" lon="6.1772">
        <ele>1052.84</ele>
        <time>2018-11-22T10:13:05Z</time>
      </trkpt>
      <trkpt lat="45.68161" lon="6.17747">
        <ele>1053.05</ele>
        <time>2018-11-22T10:13:25Z</time>
      </trkpt>
      <trkpt lat="45.68152" lon="6.1777">
        <ele>1060.64</ele>
        <time>2018-11-22T10:14:00Z</time>
      </trkpt>
      <trkpt lat="45.68154" lon="6.17796">
        <ele>1065.92</ele>
        <time>2018-11-22T10:14:30Z</time>
      </trkpt>
      <trkpt lat="45.6816" lon="6.17822">
        <ele>1073.66</ele>
        <time>2018-11-22T10:15:00Z</time>
      </trkpt>
      <trkpt lat="45.68168" lon="6.17845">
        <ele>1077.29</ele>
        <time>2018-11-22T10:15:20Z</time>
      </trkpt>
      <trkpt lat="45.68181" lon="6.17866">
        <ele>1092.08</ele>
        <time>2018-11-22T10:16:00Z</time>
      </trkpt>
      <trkpt lat="45.68183" lon="6.17892">
        <ele>1089.84</ele>
        <time>2018-11-22T10:16:25Z</time>
      </trkpt>
      <trkpt lat="45.6819" lon="6.17917">
        <ele>1104.85</ele>
        <time>2018-11-22T10:17:09Z</time>
      </trkpt>
      <trkpt lat="45.68204" lon="6.17932">
        <ele>1113.86</ele>
        <time>2018-11-22T10:17:35Z</time>
      </trkpt>
      <trkpt lat="45.68217" lon="6.1795">
        <ele>1114.59</ele>
        <time>2018-11-22T10:18:10Z</time>
      </trkpt>
      <trkpt lat="45.68231" lon="6.17967">
        <ele>1118.88</ele>
        <time>2018-11-22T10:19:14Z</time>
      </trkpt>
      <trkpt lat="45.68249" lon="6.17974">
        <ele>1138.84</ele>
        <time>2018-11-22T10:19:50Z</time>
      </trkpt>
      <trkpt lat="45.68264" lon="6.17989">
        <ele>1151.86</ele>
        <time>2018-11-22T10:20:50Z</time>
      </trkpt>
      <trkpt lat="45.68276" lon="6.18009">
        <ele>1153.84</ele>
        <time>2018-11-22T10:21:16Z</time>
      </trkpt>
      <trkpt lat="45.68288" lon="6.18029">
        <ele>1166.9</ele>
        <time>2018-11-22T10:21:57Z</time>
      </trkpt>
      <trkpt lat="45.68295" lon="6.18057">
        <ele>1174.48</ele>
        <time>2018-11-22T10:22:40Z</time>
      </trkpt>
      <trkpt lat="45.68303" lon="6.1808">
        <ele>1185.04</ele>
        <time>2018-11-22T10:23:42Z</time>
      </trkpt>
      <trkpt lat="45.68317" lon="6.18101">
        <ele>1191.83</ele>
        <time>2018-11-22T10:24:17Z</time>
      </trkpt>
      <trkpt lat="45.68326" lon="6.18123">
        <ele>1213.67</ele>
        <time>2018-11-22T10:25:43Z</time>
      </trkpt>
      <trkpt lat="45.68328" lon="6.18125">
        <ele>1211.88</ele>
        <time>2018-11-22T10:25:58Z</time>
      </trkpt>
      <trkpt lat="45.68346" lon="6.18126">
        <ele>1200.96</ele>
        <time>2018-11-22T10:27:45Z</time>
      </trkpt>
      <trkpt lat="45.68364" lon="6.18135">
        <ele>1199.69</ele>
        <time>2018-11-22T10:28:05Z</time>
      </trkpt>
      <trkpt lat="45.68381" lon="6.18148">
        <ele>1199.92</ele>
        <time>2018-11-22T10:28:23Z</time>
      </trkpt>
      <trkpt lat="45.68397" lon="6.18161">
        <ele>1194.65</ele>
        <time>2018-11-22T10:28:38Z</time>
      </trkpt>
      <trkpt lat="45.68416" lon="6.18171">
        <ele>1194.24</ele>
        <time>2018-11-22T10:28:56Z</time>
      </trkpt>
      <trkpt lat="45.68435" lon="6.18161">
        <ele>1203.87</ele>
        <time>2018-11-22T10:29:23Z</time>
      </trkpt>
      <trkpt lat="45.68442" lon="6.18187">
        <ele>1257.51</ele>
        <time>2018-11-22T10:31:18Z</time>
      </trkpt>
      <trkpt lat="45.68461" lon="6.18186">
        <ele>1247.54</ele>
        <time>2018-11-22T10:32:13Z</time>
      </trkpt>
      <trkpt lat="45.68474" lon="6.18169">
        <ele>1239.88</ele>
        <time>2018-11-22T10:32:49Z</time>
      </trkpt>
      <trkpt lat="45.68485" lon="6.18146">
        <ele>1245.63</ele>
        <time>2018-11-22T10:33:25Z</time>
      </trkpt>
      <trkpt lat="45.68495" lon="6.18123">
        <ele>1240.69</ele>
        <time>2018-11-22T10:33:46Z</time>
      </trkpt>
      <trkpt lat="45.68496" lon="6.18096">
        <ele>1245.03</ele>
        <time>2018-11-22T10:34:06Z</time>
      </trkpt>
      <trkpt lat="45.68504" lon="6.18073">
        <ele>1240.32</ele>
        <time>2018-11-22T10:34:27Z</time>
      </trkpt>
      <trkpt lat="45.68514" lon="6.1805">
        <ele>1234.05</ele>
        <time>2018-11-22T10:34:47Z</time>
      </trkpt>
      <trkpt lat="45.68516" lon="6.18024">
        <ele>1237.71</ele>
        <time>2018-11-22T10:35:07Z</time>
      </trkpt>
      <trkpt lat="45.68532" lon="6.18039">
        <ele>1256.59</ele>
        <time>2018-11-22T10:36:09Z</time>
      </trkpt>
      <trkpt lat="45.68537" lon="6.18066">
        <ele>1271.85</ele>
        <time>2018-11-22T10:36:36Z</time>
      </trkpt>
      <trkpt lat="45.68544" lon="6.18093">
        <ele>1275.7</ele>
        <time>2018-11-22T10:36:50Z</time>
      </trkpt>
      <trkpt lat="45.68546" lon="6.1812">
        <ele>1277.25</ele>
        <time>2018-11-22T10:37:38Z</time>
      </trkpt>
      <trkpt lat="45.68551" lon="6.18146">
        <ele>1279.31</ele>
        <time>2018-11-22T10:37:53Z</time>
      </trkpt>
      <trkpt lat="45.68551" lon="6.18172">
        <ele>1278.86</ele>
        <time>2018-11-22T10:38:10Z</time>
      </trkpt>
      <trkpt lat="45.68555" lon="6.18197">
        <ele>1278.84</ele>
        <time>2018-11-22T10:38:34Z</time>
      </trkpt>
      <trkpt lat="45.68559" lon="6.18223">
        <ele>1284.23</ele>
        <time>2018-11-22T10:39:03Z</time>
      </trkpt>
      <trkpt lat="45.68555" lon="6.18249">
        <ele>1288.84</ele>
        <time>2018-11-22T10:39:33Z</time>
      </trkpt>
      <trkpt lat="45.6856" lon="6.18274">
        <ele>1290.08</ele>
        <time>2018-11-22T10:40:01Z</time>
      </trkpt>
      <trkpt lat="45.68559" lon="6.18301">
        <ele>1288.31</ele>
        <time>2018-11-22T10:40:19Z</time>
      </trkpt>
      <trkpt lat="45.68563" lon="6.18328">
        <ele>1297.59</ele>
        <time>2018-11-22T10:41:18Z</time>
      </trkpt>
      <trkpt lat="45.68565" lon="6.18355">
        <ele>1301.84</ele>
        <time>2018-11-22T10:42:07Z</time>
      </trkpt>
      <trkpt lat="45.68575" lon="6.18331">
        <ele>1313.4</ele>
        <time>2018-11-22T10:42:50Z</time>
      </trkpt>
      <trkpt lat="45.68586" lon="6.1831">
        <ele>1316.87</ele>
        <time>2018-11-22T10:43:16Z</time>
      </trkpt>
      <trkpt lat="45.68596" lon="6.18289">
        <ele>1315.39</ele>
        <time>2018-11-22T10:43:36Z</time>
      </trkpt>
      <trkpt lat="45.68606" lon="6.18266">
        <ele>1323.72</ele>
        <time>2018-11-22T10:44:11Z</time>
      </trkpt>
      <trkpt lat="45.68613" lon="6.18242">
        <ele>1330.75</ele>
        <time>2018-11-22T10:44:46Z</time>
      </trkpt>
      <trkpt lat="45.68621" lon="6.18218">
        <ele>1332.08</ele>
        <time>2018-11-22T10:45:08Z</time>
      </trkpt>
      <trkpt lat="45.68626" lon="6.18193">
        <ele>1330.08</ele>
        <time>2018-11-22T10:45:30Z</time>
      </trkpt>
      <trkpt lat="45.68629" lon="6.18167">
        <ele>1339.68</ele>
        <time>2018-11-22T10:45:50Z</time>
      </trkpt>
      <trkpt lat="45.68634" lon="6.18141">
        <ele>1347.42</ele>
        <time>2018-11-22T10:46:10Z</time>
      </trkpt>
      <trkpt lat="45.68648" lon="6.18122">
        <ele>1353.69</ele>
        <time>2018-11-22T10:46:34Z</time>
      </trkpt>
      <trkpt lat="45.6866" lon="6.18146">
        <ele>1351.87</ele>
        <time>2018-11-22T10:47:06Z</time>
      </trkpt>
      <trkpt lat="45.68668" lon="6.18175">
        <ele>1361.43</ele>
        <time>2018-11-22T10:48:24Z</time>
      </trkpt>
      <trkpt lat="45.68663" lon="6.18201">
        <ele>1373.66</ele>
        <time>2018-11-22T10:49:01Z</time>
      </trkpt>
      <trkpt lat="45.68674" lon="6.18226">
        <ele>1381.08</ele>
        <time>2018-11-22T10:49:53Z</time>
      </trkpt>
      <trkpt lat="45.68683" lon="6.1825">
        <ele>1387.56</ele>
        <time>2018-11-22T10:51:05Z</time>
      </trkpt>
      <trkpt lat="45.6869" lon="6.18274">
        <ele>1396.66</ele>
        <time>2018-11-22T10:51:22Z</time>
      </trkpt>
      <trkpt lat="45.68689" lon="6.183">
        <ele>1403.67</ele>
        <time>2018-11-22T10:51:54Z</time>
      </trkpt>
      <trkpt lat="45.68689" lon="6.18326">
        <ele>1410.68</ele>
        <time>2018-11-22T10:52:23Z</time>
      </trkpt>
      <trkpt lat="45.68694" lon="6.18352">
        <ele>1409.89</ele>
        <time>2018-11-22T10:52:46Z</time>
      </trkpt>
      <trkpt lat="45.687" lon="6.18376">
        <ele>1412.28</ele>
        <time>2018-11-22T10:53:27Z</time>
      </trkpt>
      <trkpt lat="45.68711" lon="6.18398">
        <ele>1420.88</ele>
        <time>2018-11-22T10:53:59Z</time>
      </trkpt>
      <trkpt lat="45.68716" lon="6.18425">
        <ele>1424.05</ele>
        <time>2018-11-22T10:54:11Z</time>
      </trkpt>
      <trkpt lat="45.6872" lon="6.18451">
        <ele>1422.75</ele>
        <time>2018-11-22T10:54:34Z</time>
      </trkpt>
      <trkpt lat="45.6872" lon="6.18477">
        <ele>1422.67</ele>
        <time>2018-11-22T10:55:04Z</time>
      </trkpt>
      <trkpt lat="45.68714" lon="6.18503">
        <ele>1420.05</ele>
        <time>2018-11-22T10:55:28Z</time>
      </trkpt>
      <trkpt lat="45.68702" lon="6.18521">
        <ele>1415.6</ele>
        <time>2018-11-22T10:56:48Z</time>
      </trkpt>
      <trkpt lat="45.6869" lon="6.18542">
        <ele>1419.9</ele>
        <time>2018-11-22T10:57:39Z</time>
      </trkpt>
      <trkpt lat="45.68679" lon="6.18563">
        <ele>1424.28</ele>
        <time>2018-11-22T10:58:06Z</time>
      </trkpt>
      <trkpt lat="45.68662" lon="6.18576">
        <ele>1423.24</ele>
        <time>2018-11-22T10:58:54Z</time>
      </trkpt>
      <trkpt lat="45.6865" lon="6.18596">
        <ele>1427.05</ele>
        <time>2018-11-22T10:59:15Z</time>
      </trkpt>
      <trkpt lat="45.68638" lon="6.18616">
        <ele>1426.68</ele>
        <time>2018-11-22T10:59:31Z</time>
      </trkpt>
      <trkpt lat="45.68624" lon="6.18634">
        <ele>1428.48</ele>
        <time>2018-11-22T10:59:50Z</time>
      </trkpt>
      <trkpt lat="45.6861" lon="6.18652">
        <ele>1426.52</ele>
        <time>2018-11-22T11:00:12Z</time>
      </trkpt>
      <trkpt lat="45.68595" lon="6.18667">
        <ele>1437.87</ele>
        <time>2018-11-22T11:01:38Z</time>
      </trkpt>
      <trkpt lat="45.68576" lon="6.18671">
        <ele>1439.64</ele>
        <time>2018-11-22T11:02:03Z</time>
      </trkpt>
      <trkpt lat="45.68557" lon="6.18666">
        <ele>1437.63</ele>
        <time>2018-11-22T11:03:13Z</time>
      </trkpt>
      <trkpt lat="45.68539" lon="6.18672">
        <ele>1438.92</ele>
        <time>2018-11-22T11:03:33Z</time>
      </trkpt>
      <trkpt lat="45.68519" lon="6.18676">
        <ele>1439.88</ele>
        <time>2018-11-22T11:03:52Z</time>
      </trkpt>
      <trkpt lat="45.68501" lon="6.18677">
        <ele>1446.59</ele>
        <time>2018-11-22T11:04:14Z</time>
      </trkpt>
      <trkpt lat="45.68482" lon="6.18675">
        <ele>1447.47</ele>
        <time>2018-11-22T11:04:32Z</time>
      </trkpt>
      <trkpt lat="45.68466" lon="6.18665">
        <ele>1461.23</ele>
        <time>2018-11-22T11:04:52Z</time>
      </trkpt>
      <trkpt lat="45.68447" lon="6.18669">
        <ele>1461.83</ele>
        <time>2018-11-22T11:05:09Z</time>
      </trkpt>
      <trkpt lat="45.6843" lon="6.18677">
        <ele>1459.89</ele>
        <time>2018-11-22T11:05:40Z</time>
      </trkpt>
      <trkpt lat="45.68412" lon="6.18686">
        <ele>1458.84</ele>
        <time>2018-11-22T11:06:21Z</time>
      </trkpt>
      <trkpt lat="45.68398" lon="6.18702">
        <ele>1466.85</ele>
        <time>2018-11-22T11:06:58Z</time>
      </trkpt>
      <trkpt lat="45.68395" lon="6.18729">
        <ele>1471.67</ele>
        <time>2018-11-22T11:07:18Z</time>
      </trkpt>
      <trkpt lat="45.68384" lon="6.18749">
        <ele>1472.84</ele>
        <time>2018-11-22T11:08:11Z</time>
      </trkpt>
      <trkpt lat="45.68383" lon="6.18775">
        <ele>1480.87</ele>
        <time>2018-11-22T11:08:41Z</time>
      </trkpt>
      <trkpt lat="45.68377" lon="6.188">
        <ele>1484.68</ele>
        <time>2018-11-22T11:09:17Z</time>
      </trkpt>
      <trkpt lat="45.68364" lon="6.18819">
        <ele>1484.91</ele>
        <time>2018-11-22T11:10:06Z</time>
      </trkpt>
      <trkpt lat="45.68168" lon="6.18869">
        <ele>1595.13</ele>
        <time>2018-11-22T11:24:47Z</time>
      </trkpt>
      <trkpt lat="45.68151" lon="6.18878">
        <ele>1621.83</ele>
        <time>2018-11-22T11:30:45Z</time>
      </trkpt>
      <trkpt lat="45.68135" lon="6.18891">
        <ele>1621.08</ele>
        <time>2018-11-22T11:31:10Z</time>
      </trkpt>
      <trkpt lat="45.68124" lon="6.18912">
        <ele>1615.73</ele>
        <time>2018-11-22T11:31:49Z</time>
      </trkpt>
      <trkpt lat="45.68109" lon="6.18929">
        <ele>1613.28</ele>
        <time>2018-11-22T11:32:16Z</time>
      </trkpt>
      <trkpt lat="45.68116" lon="6.18953">
        <ele>1626.64</ele>
        <time>2018-11-22T11:33:33Z</time>
      </trkpt>
      <trkpt lat="45.68121" lon="6.18979">
        <ele>1641.92</ele>
        <time>2018-11-22T11:34:18Z</time>
      </trkpt>
      <trkpt lat="45.68118" lon="6.19005">
        <ele>1640.04</ele>
        <time>2018-11-22T11:35:01Z</time>
      </trkpt>
      <trkpt lat="45.68136" lon="6.19009">
        <ele>1646.88</ele>
        <time>2018-11-22T11:36:05Z</time>
      </trkpt>
      <trkpt lat="45.68151" lon="6.19028">
        <ele>1642.28</ele>
        <time>2018-11-22T11:36:54Z</time>
      </trkpt>
      <trkpt lat="45.6815" lon="6.19054">
        <ele>1665.92</ele>
        <time>2018-11-22T11:38:05Z</time>
      </trkpt>
      <trkpt lat="45.68142" lon="6.19078">
        <ele>1670.88</ele>
        <time>2018-11-22T11:38:48Z</time>
      </trkpt>
      <trkpt lat="45.68137" lon="6.19102">
        <ele>1684.27</ele>
        <time>2018-11-22T11:39:44Z</time>
      </trkpt>
      <trkpt lat="45.68126" lon="6.19123">
        <ele>1697.89</ele>
        <time>2018-11-22T11:40:43Z</time>
      </trkpt>
      <trkpt lat="45.68122" lon="6.19151">
        <ele>1701.9</ele>
        <time>2018-11-22T11:41:40Z</time>
      </trkpt>
      <trkpt lat="45.68119" lon="6.19178">
        <ele>1717.65</ele>
        <time>2018-11-22T11:42:24Z</time>
      </trkpt>
      <trkpt lat="45.68112" lon="6.19202">
        <ele>1719.04</ele>
        <time>2018-11-22T11:43:04Z</time>
      </trkpt>
      <trkpt lat="45.68117" lon="6.19228">
        <ele>1729.04</ele>
        <time>2018-11-22T11:43:50Z</time>
      </trkpt>
      <trkpt lat="45.68104" lon="6.19246">
        <ele>1726.45</ele>
        <time>2018-11-22T11:44:24Z</time>
      </trkpt>
      <trkpt lat="45.68103" lon="6.19272">
        <ele>1734.83</ele>
        <time>2018-11-22T11:45:03Z</time>
      </trkpt>
      <trkpt lat="45.68111" lon="6.19296">
        <ele>1742.93</ele>
        <time>2018-11-22T11:48:19Z</time>
      </trkpt>
      <trkpt lat="45.68168" lon="6.19266">
        <ele>1760.92</ele>
        <time>2018-11-22T11:51:41Z</time>
      </trkpt>
      <trkpt lat="45.68182" lon="6.19283">
        <ele>1779.91</ele>
        <time>2018-11-22T11:52:31Z</time>
      </trkpt>
      <trkpt lat="45.68198" lon="6.19295">
        <ele>1780.01</ele>
        <time>2018-11-22T11:53:31Z</time>
      </trkpt>
      <trkpt lat="45.68215" lon="6.19306">
        <ele>1777.85</ele>
        <time>2018-11-22T11:54:06Z</time>
      </trkpt>
      <trkpt lat="45.68232" lon="6.19317">
        <ele>1786.6</ele>
        <time>2018-11-22T11:54:32Z</time>
      </trkpt>
      <trkpt lat="45.68248" lon="6.1933">
        <ele>1789.89</ele>
        <time>2018-11-22T11:55:10Z</time>
      </trkpt>
      <trkpt lat="45.68263" lon="6.19344">
        <ele>1804.88</ele>
        <time>2018-11-22T11:55:53Z</time>
      </trkpt>
      <trkpt lat="45.6828" lon="6.19354">
        <ele>1813.88</ele>
        <time>2018-11-22T11:56:38Z</time>
      </trkpt>
      <trkpt lat="45.68295" lon="6.19371">
        <ele>1822.83</ele>
        <time>2018-11-22T11:57:25Z</time>
      </trkpt>
      <trkpt lat="45.68311" lon="6.19382">
        <ele>1825.87</ele>
        <time>2018-11-22T11:58:03Z</time>
      </trkpt>
      <trkpt lat="45.68329" lon="6.19389">
        <ele>1831.84</ele>
        <time>2018-11-22T11:58:38Z</time>
      </trkpt>
      <trkpt lat="45.68347" lon="6.19389">
        <ele>1838.63</ele>
        <time>2018-11-22T11:59:06Z</time>
      </trkpt>
      <trkpt lat="45.68365" lon="6.19387">
        <ele>1840.48</ele>
        <time>2018-11-22T12:01:24Z</time>
      </trkpt>
      <trkpt lat="45.68383" lon="6.19394">
        <ele>1841.63</ele>
        <time>2018-11-22T12:01:45Z</time>
      </trkpt>
      <trkpt lat="45.68401" lon="6.19391">
        <ele>1848.28</ele>
        <time>2018-11-22T12:02:19Z</time>
      </trkpt>
      <trkpt lat="45.68419" lon="6.19382">
        <ele>1857.83</ele>
        <time>2018-11-22T12:02:43Z</time>
      </trkpt>
      <trkpt lat="45.68437" lon="6.1938">
        <ele>1864.28</ele>
        <time>2018-11-22T12:03:26Z</time>
      </trkpt>
      <trkpt lat="45.68455" lon="6.19383">
        <ele>1867.68</ele>
        <time>2018-11-22T12:04:30Z</time>
      </trkpt>
      <trkpt lat="45.68473" lon="6.19378">
        <ele>1877.23</ele>
        <time>2018-11-22T12:05:26Z</time>
      </trkpt>
      <trkpt lat="45.68492" lon="6.19379">
        <ele>1880.61</ele>
        <time>2018-11-22T12:05:44Z</time>
      </trkpt>
      <trkpt lat="45.6851" lon="6.19379">
        <ele>1881.87</ele>
        <time>2018-11-22T12:07:17Z</time>
      </trkpt>
      <trkpt lat="45.68526" lon="6.19367">
        <ele>1887.88</ele>
        <time>2018-11-22T12:07:49Z</time>
      </trkpt>
      <trkpt lat="45.68544" lon="6.19362">
        <ele>1899.92</ele>
        <time>2018-11-22T12:08:32Z</time>
      </trkpt>
      <trkpt lat="45.68563" lon="6.19359">
        <ele>1912.87</ele>
        <time>2018-11-22T12:09:20Z</time>
      </trkpt>
      <trkpt lat="45.68581" lon="6.19364">
        <ele>1917.9</ele>
        <time>2018-11-22T12:09:53Z</time>
      </trkpt>
      <trkpt lat="45.686" lon="6.1936">
        <ele>1916.09</ele>
        <time>2018-11-22T12:10:27Z</time>
      </trkpt>
      <trkpt lat="45.68618" lon="6.19355">
        <ele>1923.85</ele>
        <time>2018-11-22T12:11:01Z</time>
      </trkpt>
      <trkpt lat="45.68636" lon="6.19351">
        <ele>1929.88</ele>
        <time>2018-11-22T12:11:48Z</time>
      </trkpt>
      <trkpt lat="45.68654" lon="6.19344">
        <ele>1943.9</ele>
        <time>2018-11-22T12:12:30Z</time>
      </trkpt>
      <trkpt lat="45.68673" lon="6.19344">
        <ele>1943.14</ele>
        <time>2018-11-22T12:13:13Z</time>
      </trkpt>
      <trkpt lat="45.6869" lon="6.19338">
        <ele>1950.87</ele>
        <time>2018-11-22T12:13:51Z</time>
      </trkpt>
      <trkpt lat="45.68708" lon="6.19335">
        <ele>1961.88</ele>
        <time>2018-11-22T12:14:41Z</time>
      </trkpt>
      <trkpt lat="45.68726" lon="6.19328">
        <ele>1969.65</ele>
        <time>2018-11-22T12:15:40Z</time>
      </trkpt>
      <trkpt lat="45.68744" lon="6.19336">
        <ele>1977.67</ele>
        <time>2018-11-22T12:16:21Z</time>
      </trkpt>
      <trkpt lat="45.68761" lon="6.19329">
        <ele>1985.48</ele>
        <time>2018-11-22T12:17:34Z</time>
      </trkpt>
      <trkpt lat="45.68779" lon="6.19321">
        <ele>1989.87</ele>
        <time>2018-11-22T12:17:56Z</time>
      </trkpt>
      <trkpt lat="45.68798" lon="6.19311">
        <ele>2005.04</ele>
        <time>2018-11-22T12:19:50Z</time>
      </trkpt>
      <trkpt lat="45.68815" lon="6.193">
        <ele>2009.29</ele>
        <time>2018-11-22T12:21:20Z</time>
      </trkpt>
      <trkpt lat="45.68828" lon="6.19319">
        <ele>2010.09</ele>
        <time>2018-11-22T12:22:15Z</time>
      </trkpt>
      <trkpt lat="45.68841" lon="6.19338">
        <ele>2013.87</ele>
        <time>2018-11-22T12:22:34Z</time>
      </trkpt>
      <trkpt lat="45.68852" lon="6.19358">
        <ele>2024.86</ele>
        <time>2018-11-22T12:23:29Z</time>
      </trkpt>
      <trkpt lat="45.68863" lon="6.19381">
        <ele>2026.88</ele>
        <time>2018-11-22T12:23:57Z</time>
      </trkpt>
      <trkpt lat="45.68872" lon="6.19403">
        <ele>2030.88</ele>
        <time>2018-11-22T12:24:22Z</time>
      </trkpt>
      <trkpt lat="45.68879" lon="6.19428">
        <ele>2037.64</ele>
        <time>2018-11-22T12:25:01Z</time>
      </trkpt>
      <trkpt lat="45.68885" lon="6.19454">
        <ele>2046.88</ele>
        <time>2018-11-22T12:25:58Z</time>
      </trkpt>
      <trkpt lat="45.68886" lon="6.1948">
        <ele>2045.86</ele>
        <time>2018-11-22T12:26:38Z</time>
      </trkpt>
      <trkpt lat="45.68897" lon="6.19505">
        <ele>2063.24</ele>
        <time>2018-11-22T12:27:45Z</time>
      </trkpt>
      <trkpt lat="45.68898" lon="6.19532">
        <ele>2057.84</ele>
        <time>2018-11-22T12:28:48Z</time>
      </trkpt>
      <trkpt lat="45.689" lon="6.19559">
        <ele>2058.72</ele>
        <time>2018-11-22T12:32:15Z</time>
      </trkpt>
      <trkpt lat="45.68905" lon="6.19584">
        <ele>2078.09</ele>
        <time>2018-11-22T12:36:33Z</time>
      </trkpt>
      <trkpt lat="45.68908" lon="6.1961">
        <ele>2090.68</ele>
        <time>2018-11-22T12:45:12Z</time>
      </trkpt>
      <trkpt lat="45.68908" lon="6.19636">
        <ele>2101.84</ele>
        <time>2018-11-22T12:46:20Z</time>
      </trkpt>
      <trkpt lat="45.68928" lon="6.19632">
        <ele>2118.08</ele>
        <time>2018-11-22T12:48:58Z</time>
      </trkpt>
      <trkpt lat="45.68948" lon="6.1964">
        <ele>2112.09</ele>
        <time>2018-11-22T12:51:38Z</time>
      </trkpt>
      <trkpt lat="45.68965" lon="6.1965">
        <ele>2121.08</ele>
        <time>2018-11-22T12:52:57Z</time>
      </trkpt>
      <trkpt lat="45.68948" lon="6.19641">
        <ele>2116.88</ele>
        <time>2018-11-22T13:01:37Z</time>
      </trkpt>
      <trkpt lat="45.68929" lon="6.19647">
        <ele>2117.71</ele>
        <time>2018-11-22T13:02:42Z</time>
      </trkpt>
      <trkpt lat="45.68913" lon="6.19636">
        <ele>2120.29</ele>
        <time>2018-11-22T13:04:49Z</time>
      </trkpt>
      <trkpt lat="45.68908" lon="6.1961">
        <ele>2092.7</ele>
        <time>2018-11-22T13:08:05Z</time>
      </trkpt>
      <trkpt lat="45.6891" lon="6.19584">
        <ele>2091.72</ele>
        <time>2018-11-22T13:11:11Z</time>
      </trkpt>
      <trkpt lat="45.68899" lon="6.19561">
        <ele>2064.68</ele>
        <time>2018-11-22T13:21:09Z</time>
      </trkpt>
      <trkpt lat="45.68904" lon="6.19534">
        <ele>2052.8</ele>
        <time>2018-11-22T13:22:58Z</time>
      </trkpt>
      <trkpt lat="45.68897" lon="6.1951">
        <ele>2059.68</ele>
        <time>2018-11-22T13:23:15Z</time>
      </trkpt>
      <trkpt lat="45.68895" lon="6.19483">
        <ele>2053.44</ele>
        <time>2018-11-22T13:24:08Z</time>
      </trkpt>
      <trkpt lat="45.68888" lon="6.19459">
        <ele>2056.12</ele>
        <time>2018-11-22T13:25:21Z</time>
      </trkpt>
      <trkpt lat="45.68875" lon="6.1944">
        <ele>2050.88</ele>
        <time>2018-11-22T13:26:10Z</time>
      </trkpt>
      <trkpt lat="45.6888" lon="6.19415">
        <ele>2035.07</ele>
        <time>2018-11-22T13:29:31Z</time>
      </trkpt>
      <trkpt lat="45.68872" lon="6.19392">
        <ele>2030.11</ele>
        <time>2018-11-22T13:29:54Z</time>
      </trkpt>
      <trkpt lat="45.68865" lon="6.19366">
        <ele>2026.09</ele>
        <time>2018-11-22T13:31:39Z</time>
      </trkpt>
      <trkpt lat="45.68852" lon="6.19347">
        <ele>2027.88</ele>
        <time>2018-11-22T13:31:58Z</time>
      </trkpt>
      <trkpt lat="45.6884" lon="6.19326">
        <ele>2022.13</ele>
        <time>2018-11-22T13:32:11Z</time>
      </trkpt>
      <trkpt lat="45.68827" lon="6.19307">
        <ele>2023.69</ele>
        <time>2018-11-22T13:32:25Z</time>
      </trkpt>
      <trkpt lat="45.6881" lon="6.19299">
        <ele>2024.88</ele>
        <time>2018-11-22T13:33:42Z</time>
      </trkpt>
      <trkpt lat="45.68793" lon="6.1931">
        <ele>2007.97</ele>
        <time>2018-11-22T13:34:22Z</time>
      </trkpt>
      <trkpt lat="45.68775" lon="6.19318">
        <ele>1997.08</ele>
        <time>2018-11-22T13:34:49Z</time>
      </trkpt>
      <trkpt lat="45.6876" lon="6.19332">
        <ele>1988.85</ele>
        <time>2018-11-22T13:35:20Z</time>
      </trkpt>
      <trkpt lat="45.6874" lon="6.19335">
        <ele>1983.67</ele>
        <time>2018-11-22T13:36:35Z</time>
      </trkpt>
      <trkpt lat="45.68722" lon="6.19333">
        <ele>1978.08</ele>
        <time>2018-11-22T13:36:55Z</time>
      </trkpt>
      <trkpt lat="45.68705" lon="6.19344">
        <ele>1966.08</ele>
        <time>2018-11-22T13:37:36Z</time>
      </trkpt>
      <trkpt lat="45.68684" lon="6.19349">
        <ele>1954.89</ele>
        <time>2018-11-22T13:37:58Z</time>
      </trkpt>
      <trkpt lat="45.68666" lon="6.19352">
        <ele>1946.92</ele>
        <time>2018-11-22T13:38:26Z</time>
      </trkpt>
      <trkpt lat="45.68647" lon="6.19347">
        <ele>1944.68</ele>
        <time>2018-11-22T13:38:50Z</time>
      </trkpt>
      <trkpt lat="45.6863" lon="6.19357">
        <ele>1933.88</ele>
        <time>2018-11-22T13:39:16Z</time>
      </trkpt>
      <trkpt lat="45.68612" lon="6.19358">
        <ele>1921.83</ele>
        <time>2018-11-22T13:39:40Z</time>
      </trkpt>
      <trkpt lat="45.68594" lon="6.19364">
        <ele>1922.12</ele>
        <time>2018-11-22T13:40:50Z</time>
      </trkpt>
      <trkpt lat="45.68575" lon="6.19367">
        <ele>1917.92</ele>
        <time>2018-11-22T13:41:11Z</time>
      </trkpt>
      <trkpt lat="45.68557" lon="6.19361">
        <ele>1914.88</ele>
        <time>2018-11-22T13:41:29Z</time>
      </trkpt>
      <trkpt lat="45.68539" lon="6.1937">
        <ele>1894.88</ele>
        <time>2018-11-22T13:43:04Z</time>
      </trkpt>
      <trkpt lat="45.6852" lon="6.19374">
        <ele>1888.66</ele>
        <time>2018-11-22T13:43:20Z</time>
      </trkpt>
      <trkpt lat="45.68502" lon="6.19381">
        <ele>1884.12</ele>
        <time>2018-11-22T13:43:39Z</time>
      </trkpt>
      <trkpt lat="45.68484" lon="6.1939">
        <ele>1876.73</ele>
        <time>2018-11-22T13:44:08Z</time>
      </trkpt>
      <trkpt lat="45.68462" lon="6.19393">
        <ele>1875.68</ele>
        <time>2018-11-22T13:44:19Z</time>
      </trkpt>
      <trkpt lat="45.68445" lon="6.19385">
        <ele>1867.72</ele>
        <time>2018-11-22T13:44:53Z</time>
      </trkpt>
      <trkpt lat="45.68426" lon="6.19384">
        <ele>1863.68</ele>
        <time>2018-11-22T13:45:10Z</time>
      </trkpt>
      <trkpt lat="45.68408" lon="6.19391">
        <ele>1851.53</ele>
        <time>2018-11-22T13:45:41Z</time>
      </trkpt>
      <trkpt lat="45.6839" lon="6.19402">
        <ele>1850.87</ele>
        <time>2018-11-22T13:45:54Z</time>
      </trkpt>
      <trkpt lat="45.68371" lon="6.19398">
        <ele>1848.08</ele>
        <time>2018-11-22T13:46:12Z</time>
      </trkpt>
      <trkpt lat="45.68352" lon="6.19396">
        <ele>1839.92</ele>
        <time>2018-11-22T13:46:25Z</time>
      </trkpt>
      <trkpt lat="45.68334" lon="6.19395">
        <ele>1835.12</ele>
        <time>2018-11-22T13:46:39Z</time>
      </trkpt>
      <trkpt lat="45.68315" lon="6.19392">
        <ele>1835.92</ele>
        <time>2018-11-22T13:47:03Z</time>
      </trkpt>
      <trkpt lat="45.68301" lon="6.19375">
        <ele>1825.88</ele>
        <time>2018-11-22T13:47:26Z</time>
      </trkpt>
      <trkpt lat="45.68284" lon="6.19364">
        <ele>1818.83</ele>
        <time>2018-11-22T13:47:42Z</time>
      </trkpt>
      <trkpt lat="45.68267" lon="6.19354">
        <ele>1811.69</ele>
        <time>2018-11-22T13:48:22Z</time>
      </trkpt>
      <trkpt lat="45.68252" lon="6.19341">
        <ele>1804.89</ele>
        <time>2018-11-22T13:48:37Z</time>
      </trkpt>
      <trkpt lat="45.68239" lon="6.19322">
        <ele>1798.29</ele>
        <time>2018-11-22T13:48:50Z</time>
      </trkpt>
      <trkpt lat="45.68221" lon="6.19312">
        <ele>1792.29</ele>
        <time>2018-11-22T13:49:05Z</time>
      </trkpt>
      <trkpt lat="45.68203" lon="6.19304">
        <ele>1784.08</ele>
        <time>2018-11-22T13:49:21Z</time>
      </trkpt>
      <trkpt lat="45.68185" lon="6.19293">
        <ele>1779.06</ele>
        <time>2018-11-22T13:49:35Z</time>
      </trkpt>
      <trkpt lat="45.68171" lon="6.19277">
        <ele>1777.84</ele>
        <time>2018-11-22T13:49:47Z</time>
      </trkpt>
      <trkpt lat="45.68155" lon="6.19261">
        <ele>1771.72</ele>
        <time>2018-11-22T13:50:06Z</time>
      </trkpt>
      <trkpt lat="45.68138" lon="6.19271">
        <ele>1769.72</ele>
        <time>2018-11-22T13:50:27Z</time>
      </trkpt>
      <trkpt lat="45.68125" lon="6.1929">
        <ele>1760.12</ele>
        <time>2018-11-22T13:50:40Z</time>
      </trkpt>
      <trkpt lat="45.68107" lon="6.19293">
        <ele>1750.93</ele>
        <time>2018-11-22T13:50:59Z</time>
      </trkpt>
      <trkpt lat="45.68089" lon="6.1929">
        <ele>1741.84</ele>
        <time>2018-11-22T13:55:06Z</time>
      </trkpt>
      <trkpt lat="45.68084" lon="6.19265">
        <ele>1738.87</ele>
        <time>2018-11-22T14:04:23Z</time>
      </trkpt>
      <trkpt lat="45.68069" lon="6.19249">
        <ele>1733.88</ele>
        <time>2018-11-22T14:05:07Z</time>
      </trkpt>
      <trkpt lat="45.68051" lon="6.19244">
        <ele>1733.92</ele>
        <time>2018-11-22T14:05:42Z</time>
      </trkpt>
      <trkpt lat="45.6804" lon="6.19223">
        <ele>1728.08</ele>
        <time>2018-11-22T14:06:42Z</time>
      </trkpt>
      <trkpt lat="45.68029" lon="6.19203">
        <ele>1728.89</ele>
        <time>2018-11-22T14:07:09Z</time>
      </trkpt>
      <trkpt lat="45.68014" lon="6.19188">
        <ele>1731.09</ele>
        <time>2018-11-22T14:08:22Z</time>
      </trkpt>
      <trkpt lat="45.67997" lon="6.19177">
        <ele>1725.84</ele>
        <time>2018-11-22T14:08:54Z</time>
      </trkpt>
      <trkpt lat="45.67984" lon="6.19157">
        <ele>1722.92</ele>
        <time>2018-11-22T14:10:51Z</time>
      </trkpt>
      <trkpt lat="45.67966" lon="6.19153">
        <ele>1716.84</ele>
        <time>2018-11-22T14:12:13Z</time>
      </trkpt>
      <trkpt lat="45.67954" lon="6.19134">
        <ele>1717.09</ele>
        <time>2018-11-22T14:12:54Z</time>
      </trkpt>
      <trkpt lat="45.67939" lon="6.19118">
        <ele>1711.86</ele>
        <time>2018-11-22T14:14:07Z</time>
      </trkpt>
      <trkpt lat="45.67925" lon="6.19101">
        <ele>1715.33</ele>
        <time>2018-11-22T14:15:03Z</time>
      </trkpt>
      <trkpt lat="45.6791" lon="6.19084">
        <ele>1710.08</ele>
        <time>2018-11-22T14:15:55Z</time>
      </trkpt>
      <trkpt lat="45.67899" lon="6.19064">
        <ele>1711.92</ele>
        <time>2018-11-22T14:17:43Z</time>
      </trkpt>
      <trkpt lat="45.67887" lon="6.19044">
        <ele>1711.8</ele>
        <time>2018-11-22T14:18:20Z</time>
      </trkpt>
      <trkpt lat="45.67872" lon="6.19027">
        <ele>1713.68</ele>
        <time>2018-11-22T14:18:55Z</time>
      </trkpt>
      <trkpt lat="45.67858" lon="6.19011">
        <ele>1715.86</ele>
        <time>2018-11-22T14:19:30Z</time>
      </trkpt>
      <trkpt lat="45.67847" lon="6.18989">
        <ele>1723.05</ele>
        <time>2018-11-22T14:20:52Z</time>
      </trkpt>
      <trkpt lat="45.67739" lon="6.1879">
        <ele>1759.88</ele>
        <time>2018-11-22T14:49:55Z</time>
      </trkpt>
      <trkpt lat="45.67757" lon="6.18795">
        <ele>1770.31</ele>
        <time>2018-11-22T15:05:55Z</time>
      </trkpt>
      <trkpt lat="45.67774" lon="6.18786">
        <ele>1773.08</ele>
        <time>2018-11-22T15:06:14Z</time>
      </trkpt>
      <trkpt lat="45.67785" lon="6.18811">
        <ele>1764.41</ele>
        <time>2018-11-22T15:08:14Z</time>
      </trkpt>
      <trkpt lat="45.67795" lon="6.18835">
        <ele>1760.04</ele>
        <time>2018-11-22T15:08:31Z</time>
      </trkpt>
      <trkpt lat="45.67809" lon="6.18852">
        <ele>1760.07</ele>
        <time>2018-11-22T15:08:58Z</time>
      </trkpt>
      <trkpt lat="45.67809" lon="6.18879">
        <ele>1758.67</ele>
        <time>2018-11-22T15:09:21Z</time>
      </trkpt>
      <trkpt lat="45.67811" lon="6.18905">
        <ele>1752.85</ele>
        <time>2018-11-22T15:09:50Z</time>
      </trkpt>
      <trkpt lat="45.67816" lon="6.18931">
        <ele>1751.88</ele>
        <time>2018-11-22T15:10:04Z</time>
      </trkpt>
      <trkpt lat="45.67831" lon="6.18947">
        <ele>1747.09</ele>
        <time>2018-11-22T15:10:40Z</time>
      </trkpt>
      <trkpt lat="45.67849" lon="6.18942">
        <ele>1730.92</ele>
        <time>2018-11-22T15:11:43Z</time>
      </trkpt>
      <trkpt lat="45.67866" lon="6.18953">
        <ele>1729.89</ele>
        <time>2018-11-22T15:12:15Z</time>
      </trkpt>
      <trkpt lat="45.67886" lon="6.18944">
        <ele>1711.88</ele>
        <time>2018-11-22T15:13:03Z</time>
      </trkpt>
      <trkpt lat="45.67894" lon="6.18919">
        <ele>1697.88</ele>
        <time>2018-11-22T15:13:31Z</time>
      </trkpt>
      <trkpt lat="45.67914" lon="6.18918">
        <ele>1690.41</ele>
        <time>2018-11-22T15:13:57Z</time>
      </trkpt>
      <trkpt lat="45.67933" lon="6.18919">
        <ele>1676.97</ele>
        <time>2018-11-22T15:15:18Z</time>
      </trkpt>
      <trkpt lat="45.67949" lon="6.18934">
        <ele>1672.92</ele>
        <time>2018-11-22T15:15:41Z</time>
      </trkpt>
      <trkpt lat="45.67966" lon="6.18947">
        <ele>1665.11</ele>
        <time>2018-11-22T15:16:40Z</time>
      </trkpt>
      <trkpt lat="45.67985" lon="6.18953">
        <ele>1661.04</ele>
        <time>2018-11-22T15:16:56Z</time>
      </trkpt>
      <trkpt lat="45.68003" lon="6.18955">
        <ele>1650.65</ele>
        <time>2018-11-22T15:17:48Z</time>
      </trkpt>
      <trkpt lat="45.68017" lon="6.18971">
        <ele>1666.06</ele>
        <time>2018-11-22T15:19:51Z</time>
      </trkpt>
      <trkpt lat="45.68029" lon="6.18991">
        <ele>1652.09</ele>
        <time>2018-11-22T15:21:17Z</time>
      </trkpt>
      <trkpt lat="45.68047" lon="6.1898">
        <ele>1634.88</ele>
        <time>2018-11-22T15:22:19Z</time>
      </trkpt>
      <trkpt lat="45.68065" lon="6.18969">
        <ele>1638.34</ele>
        <time>2018-11-22T15:22:33Z</time>
      </trkpt>
      <trkpt lat="45.6808" lon="6.18953">
        <ele>1626.8</ele>
        <time>2018-11-22T15:22:47Z</time>
      </trkpt>
      <trkpt lat="45.68098" lon="6.18947">
        <ele>1628.68</ele>
        <time>2018-11-22T15:23:09Z</time>
      </trkpt>
      <trkpt lat="45.68108" lon="6.18923">
        <ele>1620.88</ele>
        <time>2018-11-22T15:23:36Z</time>
      </trkpt>
      <trkpt lat="45.68121" lon="6.18905">
        <ele>1619.09</ele>
        <time>2018-11-22T15:23:56Z</time>
      </trkpt>
      <trkpt lat="45.68138" lon="6.1889">
        <ele>1616.87</ele>
        <time>2018-11-22T15:24:36Z</time>
      </trkpt>
      <trkpt lat="45.68153" lon="6.18876">
        <ele>1614.89</ele>
        <time>2018-11-22T15:24:57Z</time>
      </trkpt>
      <trkpt lat="45.68174" lon="6.18871">
        <ele>1605.32</ele>
        <time>2018-11-22T15:33:19Z</time>
      </trkpt>
      <trkpt lat="45.68194" lon="6.18871">
        <ele>1598.27</ele>
        <time>2018-11-22T15:33:33Z</time>
      </trkpt>
      <trkpt lat="45.68212" lon="6.18874">
        <ele>1588.32</ele>
        <time>2018-11-22T15:34:39Z</time>
      </trkpt>
      <trkpt lat="45.6823" lon="6.18878">
        <ele>1583.88</ele>
        <time>2018-11-22T15:35:15Z</time>
      </trkpt>
      <trkpt lat="45.68248" lon="6.18884">
        <ele>1576.88</ele>
        <time>2018-11-22T15:35:51Z</time>
      </trkpt>
      <trkpt lat="45.68265" lon="6.18903">
        <ele>1575.6</ele>
        <time>2018-11-22T15:36:50Z</time>
      </trkpt>
      <trkpt lat="45.68262" lon="6.18875">
        <ele>1557.71</ele>
        <time>2018-11-22T15:38:22Z</time>
      </trkpt>
      <trkpt lat="45.68275" lon="6.18857">
        <ele>1523.77</ele>
        <time>2018-11-22T15:41:59Z</time>
      </trkpt>
      <trkpt lat="45.68294" lon="6.18865">
        <ele>1516.11</ele>
        <time>2018-11-22T15:43:01Z</time>
      </trkpt>
      <trkpt lat="45.68317" lon="6.18875">
        <ele>1514.72</ele>
        <time>2018-11-22T15:44:09Z</time>
      </trkpt>
      <trkpt lat="45.68334" lon="6.18865">
        <ele>1602</ele>
        <time>2018-11-22T15:45:27Z</time>
      </trkpt>
      <trkpt lat="45.68352" lon="6.18866">
        <ele>1494.33</ele>
        <time>2018-11-22T15:46:03Z</time>
      </trkpt>
      <trkpt lat="45.68359" lon="6.18841">
        <ele>1490.95</ele>
        <time>2018-11-22T15:48:54Z</time>
      </trkpt>
      <trkpt lat="45.68372" lon="6.18821">
        <ele>1469.6</ele>
        <time>2018-11-22T15:50:16Z</time>
      </trkpt>
      <trkpt lat="45.68382" lon="6.18798">
        <ele>1463.12</ele>
        <time>2018-11-22T15:50:35Z</time>
      </trkpt>
      <trkpt lat="45.68376" lon="6.18773">
        <ele>1461.62</ele>
        <time>2018-11-22T15:51:06Z</time>
      </trkpt>
      <trkpt lat="45.68391" lon="6.18757">
        <ele>1449.96</ele>
        <time>2018-11-22T15:51:29Z</time>
      </trkpt>
      <trkpt lat="45.68394" lon="6.18731">
        <ele>1449.87</ele>
        <time>2018-11-22T15:51:45Z</time>
      </trkpt>
      <trkpt lat="45.6841" lon="6.18709">
        <ele>1440.52</ele>
        <time>2018-11-22T15:52:16Z</time>
      </trkpt>
      <trkpt lat="45.68414" lon="6.18684">
        <ele>1443.87</ele>
        <time>2018-11-22T15:52:31Z</time>
      </trkpt>
      <trkpt lat="45.68431" lon="6.18673">
        <ele>1446.72</ele>
        <time>2018-11-22T15:53:27Z</time>
      </trkpt>
      <trkpt lat="45.68449" lon="6.18673">
        <ele>1439.71</ele>
        <time>2018-11-22T15:53:49Z</time>
      </trkpt>
      <trkpt lat="45.68468" lon="6.18674">
        <ele>1439.09</ele>
        <time>2018-11-22T15:54:06Z</time>
      </trkpt>
      <trkpt lat="45.68485" lon="6.18687">
        <ele>1429.29</ele>
        <time>2018-11-22T15:54:22Z</time>
      </trkpt>
      <trkpt lat="45.68503" lon="6.18686">
        <ele>1425.59</ele>
        <time>2018-11-22T15:54:37Z</time>
      </trkpt>
      <trkpt lat="45.68521" lon="6.18681">
        <ele>1430.04</ele>
        <time>2018-11-22T15:54:56Z</time>
      </trkpt>
      <trkpt lat="45.68538" lon="6.18669">
        <ele>1424.84</ele>
        <time>2018-11-22T15:55:15Z</time>
      </trkpt>
      <trkpt lat="45.68555" lon="6.18674">
        <ele>1424.04</ele>
        <time>2018-11-22T15:55:29Z</time>
      </trkpt>
      <trkpt lat="45.68574" lon="6.18672">
        <ele>1428.04</ele>
        <time>2018-11-22T15:55:47Z</time>
      </trkpt>
      <trkpt lat="45.68593" lon="6.18674">
        <ele>1432.92</ele>
        <time>2018-11-22T15:56:20Z</time>
      </trkpt>
      <trkpt lat="45.686" lon="6.1865">
        <ele>1431.13</ele>
        <time>2018-11-22T15:56:39Z</time>
      </trkpt>
      <trkpt lat="45.68617" lon="6.18637">
        <ele>1426.63</ele>
        <time>2018-11-22T15:57:03Z</time>
      </trkpt>
      <trkpt lat="45.68635" lon="6.18629">
        <ele>1421.09</ele>
        <time>2018-11-22T15:57:30Z</time>
      </trkpt>
      <trkpt lat="45.68648" lon="6.1861">
        <ele>1425.43</ele>
        <time>2018-11-22T15:57:48Z</time>
      </trkpt>
      <trkpt lat="45.68662" lon="6.18592">
        <ele>1407.65</ele>
        <time>2018-11-22T15:58:43Z</time>
      </trkpt>
      <trkpt lat="45.68673" lon="6.1857">
        <ele>1416.07</ele>
        <time>2018-11-22T15:59:09Z</time>
      </trkpt>
      <trkpt lat="45.68686" lon="6.18552">
        <ele>1412.85</ele>
        <time>2018-11-22T15:59:34Z</time>
      </trkpt>
      <trkpt lat="45.68698" lon="6.18532">
        <ele>1419.08</ele>
        <time>2018-11-22T16:00:17Z</time>
      </trkpt>
      <trkpt lat="45.68704" lon="6.18507">
        <ele>1422.89</ele>
        <time>2018-11-22T16:00:50Z</time>
      </trkpt>
      <trkpt lat="45.68707" lon="6.18482">
        <ele>1418.92</ele>
        <time>2018-11-22T16:01:17Z</time>
      </trkpt>
      <trkpt lat="45.68711" lon="6.18456">
        <ele>1415.29</ele>
        <time>2018-11-22T16:01:47Z</time>
      </trkpt>
      <trkpt lat="45.68708" lon="6.1843">
        <ele>1417.64</ele>
        <time>2018-11-22T16:01:55Z</time>
      </trkpt>
      <trkpt lat="45.68701" lon="6.18405">
        <ele>1405.31</ele>
        <time>2018-11-22T16:02:10Z</time>
      </trkpt>
      <trkpt lat="45.68704" lon="6.18378">
        <ele>1399.08</ele>
        <time>2018-11-22T16:02:35Z</time>
      </trkpt>
      <trkpt lat="45.68695" lon="6.18356">
        <ele>1398.65</ele>
        <time>2018-11-22T16:02:44Z</time>
      </trkpt>
      <trkpt lat="45.6868" lon="6.18336">
        <ele>1396.9</ele>
        <time>2018-11-22T16:02:56Z</time>
      </trkpt>
      <trkpt lat="45.68683" lon="6.18311">
        <ele>1393.24</ele>
        <time>2018-11-22T16:03:12Z</time>
      </trkpt>
      <trkpt lat="45.68688" lon="6.18285">
        <ele>1388.47</ele>
        <time>2018-11-22T16:03:25Z</time>
      </trkpt>
      <trkpt lat="45.68683" lon="6.18256">
        <ele>1387.64</ele>
        <time>2018-11-22T16:04:28Z</time>
      </trkpt>
      <trkpt lat="45.68681" lon="6.1823">
        <ele>1377.08</ele>
        <time>2018-11-22T16:04:51Z</time>
      </trkpt>
      <trkpt lat="45.68672" lon="6.18208">
        <ele>1370.88</ele>
        <time>2018-11-22T16:05:12Z</time>
      </trkpt>
      <trkpt lat="45.68657" lon="6.18192">
        <ele>1356.68</ele>
        <time>2018-11-22T16:05:38Z</time>
      </trkpt>
      <trkpt lat="45.68669" lon="6.18173">
        <ele>1341.09</ele>
        <time>2018-11-22T16:05:59Z</time>
      </trkpt>
      <trkpt lat="45.68662" lon="6.18148">
        <ele>1346.82</ele>
        <time>2018-11-22T16:06:58Z</time>
      </trkpt>
      <trkpt lat="45.68648" lon="6.18166">
        <ele>1356.47</ele>
        <time>2018-11-22T16:07:25Z</time>
      </trkpt>
      <trkpt lat="45.68635" lon="6.18185">
        <ele>1352.88</ele>
        <time>2018-11-22T16:07:41Z</time>
      </trkpt>
      <trkpt lat="45.68623" lon="6.18205">
        <ele>1345.05</ele>
        <time>2018-11-22T16:07:56Z</time>
      </trkpt>
      <trkpt lat="45.6862" lon="6.18232">
        <ele>1341.96</ele>
        <time>2018-11-22T16:08:12Z</time>
      </trkpt>
      <trkpt lat="45.68619" lon="6.18259">
        <ele>1341.04</ele>
        <time>2018-11-22T16:08:27Z</time>
      </trkpt>
      <trkpt lat="45.68604" lon="6.18274">
        <ele>1329.88</ele>
        <time>2018-11-22T16:09:03Z</time>
      </trkpt>
      <trkpt lat="45.6859" lon="6.18294">
        <ele>1324.91</ele>
        <time>2018-11-22T16:09:18Z</time>
      </trkpt>
      <trkpt lat="45.68585" lon="6.18321">
        <ele>1320.93</ele>
        <time>2018-11-22T16:09:44Z</time>
      </trkpt>
      <trkpt lat="45.68581" lon="6.18346">
        <ele>1320.04</ele>
        <time>2018-11-22T16:09:56Z</time>
      </trkpt>
      <trkpt lat="45.68566" lon="6.18364">
        <ele>1319.71</ele>
        <time>2018-11-22T16:10:09Z</time>
      </trkpt>
      <trkpt lat="45.68548" lon="6.18365">
        <ele>1310.06</ele>
        <time>2018-11-22T16:10:21Z</time>
      </trkpt>
      <trkpt lat="45.68552" lon="6.18339">
        <ele>1293.28</ele>
        <time>2018-11-22T16:10:52Z</time>
      </trkpt>
      <trkpt lat="45.68556" lon="6.18314">
        <ele>1290.65</ele>
        <time>2018-11-22T16:11:11Z</time>
      </trkpt>
      <trkpt lat="45.68551" lon="6.18288">
        <ele>1291.9</ele>
        <time>2018-11-22T16:11:26Z</time>
      </trkpt>
      <trkpt lat="45.6855" lon="6.18261">
        <ele>1283.89</ele>
        <time>2018-11-22T16:11:41Z</time>
      </trkpt>
      <trkpt lat="45.68551" lon="6.18233">
        <ele>1279.69</ele>
        <time>2018-11-22T16:11:55Z</time>
      </trkpt>
      <trkpt lat="45.6854" lon="6.1821">
        <ele>1277.69</ele>
        <time>2018-11-22T16:12:15Z</time>
      </trkpt>
      <trkpt lat="45.68543" lon="6.18181">
        <ele>1263.88</ele>
        <time>2018-11-22T16:12:37Z</time>
      </trkpt>
      <trkpt lat="45.68531" lon="6.18162">
        <ele>1263.08</ele>
        <time>2018-11-22T16:12:56Z</time>
      </trkpt>
      <trkpt lat="45.68531" lon="6.18135">
        <ele>1258.68</ele>
        <time>2018-11-22T16:13:11Z</time>
      </trkpt>
      <trkpt lat="45.68535" lon="6.18108">
        <ele>1256.88</ele>
        <time>2018-11-22T16:13:21Z</time>
      </trkpt>
      <trkpt lat="45.68529" lon="6.18084">
        <ele>1251.09</ele>
        <time>2018-11-22T16:13:43Z</time>
      </trkpt>
      <trkpt lat="45.68531" lon="6.18055">
        <ele>1243.93</ele>
        <time>2018-11-22T16:13:57Z</time>
      </trkpt>
      <trkpt lat="45.68526" lon="6.1808">
        <ele>1239.89</ele>
        <time>2018-11-22T16:14:58Z</time>
      </trkpt>
      <trkpt lat="45.68513" lon="6.181">
        <ele>1239.87</ele>
        <time>2018-11-22T16:15:08Z</time>
      </trkpt>
      <trkpt lat="45.68504" lon="6.18124">
        <ele>1237.93</ele>
        <time>2018-11-22T16:15:16Z</time>
      </trkpt>
      <trkpt lat="45.68499" lon="6.1815">
        <ele>1235.11</ele>
        <time>2018-11-22T16:15:28Z</time>
      </trkpt>
      <trkpt lat="45.68489" lon="6.18172">
        <ele>1227.88</ele>
        <time>2018-11-22T16:15:54Z</time>
      </trkpt>
      <trkpt lat="45.68481" lon="6.18196">
        <ele>1226.47</ele>
        <time>2018-11-22T16:16:12Z</time>
      </trkpt>
      <trkpt lat="45.6847" lon="6.18222">
        <ele>1223.28</ele>
        <time>2018-11-22T16:16:47Z</time>
      </trkpt>
      <trkpt lat="45.68448" lon="6.18225">
        <ele>1216.89</ele>
        <time>2018-11-22T16:16:51Z</time>
      </trkpt>
      <trkpt lat="45.68437" lon="6.18203">
        <ele>1207.48</ele>
        <time>2018-11-22T16:17:29Z</time>
      </trkpt>
      <trkpt lat="45.6843" lon="6.18179">
        <ele>1197.27</ele>
        <time>2018-11-22T16:17:50Z</time>
      </trkpt>
      <trkpt lat="45.68439" lon="6.18156">
        <ele>1201.78</ele>
        <time>2018-11-22T16:18:41Z</time>
      </trkpt>
      <trkpt lat="45.68425" lon="6.18138">
        <ele>1190.71</ele>
        <time>2018-11-22T16:19:10Z</time>
      </trkpt>
      <trkpt lat="45.6841" lon="6.18121">
        <ele>1180.13</ele>
        <time>2018-11-22T16:19:25Z</time>
      </trkpt>
      <trkpt lat="45.6839" lon="6.18114">
        <ele>1173.92</ele>
        <time>2018-11-22T16:19:51Z</time>
      </trkpt>
      <trkpt lat="45.68373" lon="6.18101">
        <ele>1171.63</ele>
        <time>2018-11-22T16:20:16Z</time>
      </trkpt>
      <trkpt lat="45.68357" lon="6.18088">
        <ele>1168.04</ele>
        <time>2018-11-22T16:20:29Z</time>
      </trkpt>
      <trkpt lat="45.68365" lon="6.18064">
        <ele>1165.87</ele>
        <time>2018-11-22T16:20:50Z</time>
      </trkpt>
      <trkpt lat="45.6837" lon="6.18039">
        <ele>1175.69</ele>
        <time>2018-11-22T16:21:26Z</time>
      </trkpt>
      <trkpt lat="45.68367" lon="6.18013">
        <ele>1155.73</ele>
        <time>2018-11-22T16:22:11Z</time>
      </trkpt>
      <trkpt lat="45.68351" lon="6.18001">
        <ele>1145.84</ele>
        <time>2018-11-22T16:22:26Z</time>
      </trkpt>
      <trkpt lat="45.68337" lon="6.17984">
        <ele>1150.62</ele>
        <time>2018-11-22T16:22:58Z</time>
      </trkpt>
      <trkpt lat="45.68326" lon="6.17963">
        <ele>1143.17</ele>
        <time>2018-11-22T16:23:14Z</time>
      </trkpt>
      <trkpt lat="45.68314" lon="6.17943">
        <ele>1129.89</ele>
        <time>2018-11-22T16:23:29Z</time>
      </trkpt>
      <trkpt lat="45.68295" lon="6.17936">
        <ele>1119.86</ele>
        <time>2018-11-22T16:23:49Z</time>
      </trkpt>
      <trkpt lat="45.6828" lon="6.17921">
        <ele>1117.96</ele>
        <time>2018-11-22T16:24:25Z</time>
      </trkpt>
      <trkpt lat="45.68263" lon="6.17906">
        <ele>1112.11</ele>
        <time>2018-11-22T16:24:38Z</time>
      </trkpt>
      <trkpt lat="45.68248" lon="6.17891">
        <ele>1104.16</ele>
        <time>2018-11-22T16:24:52Z</time>
      </trkpt>
      <trkpt lat="45.68234" lon="6.17874">
        <ele>1099.89</ele>
        <time>2018-11-22T16:25:09Z</time>
      </trkpt>
      <trkpt lat="45.68221" lon="6.17854">
        <ele>1098.88</ele>
        <time>2018-11-22T16:25:24Z</time>
      </trkpt>
      <trkpt lat="45.68209" lon="6.17833">
        <ele>1094.56</ele>
        <time>2018-11-22T16:25:46Z</time>
      </trkpt>
      <trkpt lat="45.68194" lon="6.17817">
        <ele>1096.88</ele>
        <time>2018-11-22T16:26:01Z</time>
      </trkpt>
      <trkpt lat="45.68176" lon="6.17817">
        <ele>1080.85</ele>
        <time>2018-11-22T16:26:30Z</time>
      </trkpt>
      <trkpt lat="45.68159" lon="6.17828">
        <ele>1081.42</ele>
        <time>2018-11-22T16:26:50Z</time>
      </trkpt>
      <trkpt lat="45.68144" lon="6.1781">
        <ele>1079.69</ele>
        <time>2018-11-22T16:27:09Z</time>
      </trkpt>
      <trkpt lat="45.68147" lon="6.17783">
        <ele>1066.93</ele>
        <time>2018-11-22T16:27:26Z</time>
      </trkpt>
      <trkpt lat="45.68147" lon="6.17757">
        <ele>1061.84</ele>
        <time>2018-11-22T16:27:42Z</time>
      </trkpt>
      <trkpt lat="45.68149" lon="6.17731">
        <ele>1058.99</ele>
        <time>2018-11-22T16:28:02Z</time>
      </trkpt>
      <trkpt lat="45.68158" lon="6.17707">
        <ele>1050.36</ele>
        <time>2018-11-22T16:28:24Z</time>
      </trkpt>
      <trkpt lat="45.68167" lon="6.17682">
        <ele>1054.87</ele>
        <time>2018-11-22T16:28:49Z</time>
      </trkpt>
      <trkpt lat="45.68163" lon="6.17656">
        <ele>1046.89</ele>
        <time>2018-11-22T16:29:06Z</time>
      </trkpt>
      <trkpt lat="45.68163" lon="6.17629">
        <ele>1039.93</ele>
        <time>2018-11-22T16:29:24Z</time>
      </trkpt>
      <trkpt lat="45.68155" lon="6.17606">
        <ele>1031.2</ele>
        <time>2018-11-22T16:29:47Z</time>
      </trkpt>
      <trkpt lat="45.68145" lon="6.17582">
        <ele>1029.32</ele>
        <time>2018-11-22T16:30:02Z</time>
      </trkpt>
      <trkpt lat="45.68137" lon="6.17559">
        <ele>1020.88</ele>
        <time>2018-11-22T16:30:20Z</time>
      </trkpt>
      <trkpt lat="45.68122" lon="6.17544">
        <ele>1020.85</ele>
        <time>2018-11-22T16:30:39Z</time>
      </trkpt>
      <trkpt lat="45.68111" lon="6.17522">
        <ele>1019.84</ele>
        <time>2018-11-22T16:30:53Z</time>
      </trkpt>
      <trkpt lat="45.681" lon="6.17502">
        <ele>1017.43</ele>
        <time>2018-11-22T16:31:13Z</time>
      </trkpt>
      <trkpt lat="45.68097" lon="6.17476">
        <ele>1015.95</ele>
        <time>2018-11-22T16:31:23Z</time>
      </trkpt>
      <trkpt lat="45.681" lon="6.17449">
        <ele>1014.73</ele>
        <time>2018-11-22T16:31:38Z</time>
      </trkpt>
      <trkpt lat="45.68104" lon="6.17423">
        <ele>1017.67</ele>
        <time>2018-11-22T16:31:58Z</time>
      </trkpt>
      <trkpt lat="45.6809" lon="6.17404">
        <ele>1008.49</ele>
        <time>2018-11-22T16:32:15Z</time>
      </trkpt>
      <trkpt lat="45.68082" lon="6.1738">
        <ele>1010.01</ele>
        <time>2018-11-22T16:32:28Z</time>
      </trkpt>
      <trkpt lat="45.68091" lon="6.17355">
        <ele>1004.41</ele>
        <time>2018-11-22T16:33:24Z</time>
      </trkpt>
      <trkpt lat="45.68097" lon="6.1733">
        <ele>985.05</ele>
        <time>2018-11-22T16:33:48Z</time>
      </trkpt>
      <trkpt lat="45.68084" lon="6.1731">
        <ele>992.17</ele>
        <time>2018-11-22T16:33:57Z</time>
      </trkpt>
      <trkpt lat="45.68065" lon="6.1731">
        <ele>990.09</ele>
        <time>2018-11-22T16:34:22Z</time>
      </trkpt>
      <trkpt lat="45.68057" lon="6.17286">
        <ele>995.09</ele>
        <time>2018-11-22T16:34:42Z</time>
      </trkpt>
      <trkpt lat="45.68053" lon="6.1726">
        <ele>990.07</ele>
        <time>2018-11-22T16:34:59Z</time>
      </trkpt>
      <trkpt lat="45.6806" lon="6.17235">
        <ele>986.89</ele>
        <time>2018-11-22T16:35:14Z</time>
      </trkpt>
      <trkpt lat="45.6806" lon="6.17207">
        <ele>978.92</ele>
        <time>2018-11-22T16:35:30Z</time>
      </trkpt>
      <trkpt lat="45.68069" lon="6.17181">
        <ele>982.07</ele>
        <time>2018-11-22T16:35:46Z</time>
      </trkpt>
      <trkpt lat="45.68078" lon="6.17158">
        <ele>981.91</ele>
        <time>2018-11-22T16:35:55Z</time>
      </trkpt>
      <trkpt lat="45.68084" lon="6.17133">
        <ele>975.65</ele>
        <time>2018-11-22T16:36:11Z</time>
      </trkpt>
      <trkpt lat="45.68097" lon="6.17115">
        <ele>971.96</ele>
        <time>2018-11-22T16:36:25Z</time>
      </trkpt>
      <trkpt lat="45.6811" lon="6.17098">
        <ele>968.87</ele>
        <time>2018-11-22T16:36:37Z</time>
      </trkpt>
      <trkpt lat="45.6812" lon="6.17074">
        <ele>966.17</ele>
        <time>2018-11-22T16:36:50Z</time>
      </trkpt>
      <trkpt lat="45.68137" lon="6.17062">
        <ele>967.68</ele>
        <time>2018-11-22T16:37:02Z</time>
      </trkpt>
      <trkpt lat="45.68155" lon="6.17054">
        <ele>953.07</ele>
        <time>2018-11-22T16:37:45Z</time>
      </trkpt>
      <trkpt lat="45.68174" lon="6.17047">
        <ele>955.83</ele>
        <time>2018-11-22T16:38:05Z</time>
      </trkpt>
      <trkpt lat="45.68192" lon="6.17036">
        <ele>949.16</ele>
        <time>2018-11-22T16:38:20Z</time>
      </trkpt>
      <trkpt lat="45.68201" lon="6.17011">
        <ele>952.83</ele>
        <time>2018-11-22T16:38:35Z</time>
      </trkpt>
      <trkpt lat="45.68212" lon="6.16988">
        <ele>944.33</ele>
        <time>2018-11-22T16:38:47Z</time>
      </trkpt>
      <trkpt lat="45.68221" lon="6.16964">
        <ele>943.92</ele>
        <time>2018-11-22T16:39:00Z</time>
      </trkpt>
      <trkpt lat="45.68222" lon="6.16938">
        <ele>932.12</ele>
        <time>2018-11-22T16:39:18Z</time>
      </trkpt>
      <trkpt lat="45.68226" lon="6.16912">
        <ele>931.79</ele>
        <time>2018-11-22T16:39:33Z</time>
      </trkpt>
      <trkpt lat="45.68233" lon="6.16887">
        <ele>936.88</ele>
        <time>2018-11-22T16:39:46Z</time>
      </trkpt>
      <trkpt lat="45.68249" lon="6.16873">
        <ele>936.87</ele>
        <time>2018-11-22T16:40:00Z</time>
      </trkpt>
      <trkpt lat="45.68267" lon="6.1687">
        <ele>935.88</ele>
        <time>2018-11-22T16:40:15Z</time>
      </trkpt>
      <trkpt lat="45.68286" lon="6.16867">
        <ele>939.89</ele>
        <time>2018-11-22T16:40:30Z</time>
      </trkpt>
      <trkpt lat="45.68306" lon="6.16867">
        <ele>936.88</ele>
        <time>2018-11-22T16:40:43Z</time>
      </trkpt>
      <trkpt lat="45.68324" lon="6.16866">
        <ele>933.69</ele>
        <time>2018-11-22T16:40:55Z</time>
      </trkpt>
      <trkpt lat="45.68342" lon="6.1686">
        <ele>934.04</ele>
        <time>2018-11-22T16:41:49Z</time>
      </trkpt>
      <trkpt lat="45.6836" lon="6.16861">
        <ele>935.88</ele>
        <time>2018-11-22T16:42:04Z</time>
      </trkpt>
      <trkpt lat="45.68375" lon="6.16842">
        <ele>941.06</ele>
        <time>2018-11-22T16:42:25Z</time>
      </trkpt>
      <trkpt lat="45.68393" lon="6.16836">
        <ele>934.67</ele>
        <time>2018-11-22T16:42:42Z</time>
      </trkpt>
      <trkpt lat="45.68409" lon="6.16823">
        <ele>932.88</ele>
        <time>2018-11-22T16:42:58Z</time>
      </trkpt>
      <trkpt lat="45.68427" lon="6.16819">
        <ele>934.91</ele>
        <time>2018-11-22T16:43:15Z</time>
      </trkpt>
    </trkseg>
  </trk>
</gpx>